createdAt,value
2023-02-18T00:01:23.982Z,69.70
2023-02-18T00:03:51.177Z,69.60
2023-02-18T00:06:22.078Z,69.60
2023-02-18T00:08:49.460Z,69.80
2023-02-18T00:11:17.890Z,69.70
2023-02-18T00:13:49.353Z,69.70
2023-02-18T00:16:16.048Z,69.70
2023-02-18T00:18:42.762Z,69.90
2023-02-18T00:21:09.616Z,69.90
2023-02-18T00:23:36.494Z,69.80
2023-02-18T00:26:12.604Z,69.70
2023-02-18T00:28:41.077Z,69.70
2023-02-18T00:31:09.999Z,69.80
2023-02-18T00:33:37.268Z,69.80
2023-02-18T00:36:10.529Z,69.80
2023-02-18T00:38:37.454Z,69.70
2023-02-18T00:41:04.452Z,69.80
2023-02-18T00:43:31.624Z,69.70
2023-02-18T00:45:58.318Z,69.80
2023-02-18T00:48:25.541Z,69.80
2023-02-18T00:50:52.206Z,69.80
2023-02-18T00:53:19.008Z,69.90
2023-02-18T00:55:49.611Z,69.90
2023-02-18T00:58:17.230Z,69.90
2023-02-18T01:00:44.401Z,69.90
2023-02-18T01:03:13.074Z,69.90
2023-02-18T01:05:40.869Z,70.00
2023-02-18T01:08:09.075Z,70.00
2023-02-18T01:10:37.254Z,69.90
2023-02-18T01:13:05.087Z,69.90
2023-02-18T01:15:32.317Z,70.10
2023-02-18T01:17:59.000Z,70.00
2023-02-18T01:20:25.821Z,70.00
2023-02-18T01:22:52.568Z,70.00
2023-02-18T01:25:19.298Z,70.20
2023-02-18T01:27:45.977Z,70.10
2023-02-18T01:30:15.981Z,70.00
2023-02-18T01:32:45.023Z,70.00
2023-02-18T01:35:16.948Z,70.10
2023-02-18T01:37:44.156Z,70.10
2023-02-18T01:40:13.245Z,70.20
2023-02-18T01:42:40.100Z,70.10
2023-02-18T01:45:47.466Z,70.10
2023-02-18T01:48:17.406Z,70.20
2023-02-18T01:50:49.661Z,70.10
2023-02-18T01:53:21.730Z,70.20
2023-02-18T01:55:49.644Z,70.20
2023-02-18T01:58:17.084Z,70.10
2023-02-18T02:00:45.829Z,70.20
2023-02-18T02:03:14.762Z,70.20
2023-02-18T02:05:43.825Z,70.20
2023-02-18T02:08:14.515Z,70.20
2023-02-18T02:11:38.963Z,70.30
2023-02-18T02:14:24.060Z,70.40
2023-02-18T02:17:03.984Z,70.30
2023-02-18T02:20:12.529Z,70.30
2023-02-18T02:23:20.637Z,70.50
2023-02-18T02:26:30.112Z,71.10
2023-02-18T02:29:17.050Z,70.30
2023-02-18T02:32:14.953Z,70.30
2023-02-18T02:34:57.571Z,70.50
2023-02-18T02:37:49.837Z,70.40
2023-02-18T02:40:38.651Z,70.50
2023-02-18T02:43:32.319Z,70.40
2023-02-18T02:46:31.362Z,70.40
2023-02-18T02:49:08.313Z,70.40
2023-02-18T02:51:56.843Z,70.50
2023-02-18T02:54:26.455Z,70.60
2023-02-18T02:57:07.501Z,70.50
2023-02-18T02:59:40.319Z,70.60
2023-02-18T03:02:58.146Z,70.40
2023-02-18T03:05:39.007Z,70.50
2023-02-18T03:08:39.289Z,70.60
2023-02-18T03:11:12.505Z,70.70
2023-02-18T03:14:14.769Z,70.60
2023-02-18T03:16:58.355Z,70.60
2023-02-18T03:19:29.445Z,70.70
2023-02-18T03:22:05.441Z,70.70
2023-02-18T03:24:37.535Z,70.70
2023-02-18T03:27:15.818Z,70.70
2023-02-18T03:29:46.331Z,70.70
2023-02-18T03:32:17.177Z,70.70
2023-02-18T03:34:48.705Z,70.80
2023-02-18T03:37:15.982Z,70.80
2023-02-18T03:39:45.910Z,70.80
2023-02-18T03:42:13.159Z,70.90
2023-02-18T03:44:39.907Z,70.90
2023-02-18T03:47:06.651Z,70.80
2023-02-18T03:49:33.321Z,70.90
2023-02-18T03:52:00.847Z,70.80
2023-02-18T03:54:27.537Z,70.80
2023-02-18T03:56:54.941Z,70.80
2023-02-18T03:59:21.613Z,71.00
2023-02-18T04:01:48.327Z,70.90
2023-02-18T04:04:15.049Z,71.20
2023-02-18T04:06:41.782Z,71.20
2023-02-18T04:09:09.068Z,71.00
2023-02-18T04:11:38.620Z,71.10
2023-02-18T04:14:05.952Z,71.10
2023-02-18T04:16:32.905Z,71.00
2023-02-18T04:18:59.851Z,71.10
2023-02-18T04:21:26.655Z,71.00
2023-02-18T04:23:53.307Z,71.10
2023-02-18T04:26:20.083Z,71.00
2023-02-18T04:28:46.751Z,71.10
2023-02-18T04:31:13.710Z,71.10
2023-02-18T04:33:40.423Z,71.10
2023-02-18T04:36:08.332Z,71.20
2023-02-18T04:38:35.251Z,71.20
2023-02-18T04:41:02.226Z,71.20
2023-02-18T04:43:28.896Z,71.20
2023-02-18T04:45:55.592Z,71.30
2023-02-18T04:48:22.288Z,71.10
2023-02-18T04:50:48.972Z,71.20
2023-02-18T04:53:15.659Z,71.30
2023-02-18T04:55:42.373Z,71.20
2023-02-18T04:58:10.515Z,71.20
2023-02-18T05:00:37.189Z,71.30
2023-02-18T05:03:03.900Z,71.20
2023-02-18T05:05:30.596Z,71.30
2023-02-18T05:07:57.305Z,71.30
2023-02-18T05:10:24.149Z,71.40
2023-02-18T05:12:50.825Z,71.50
2023-02-18T05:15:17.733Z,71.20
2023-02-18T05:17:44.382Z,71.20
2023-02-18T05:20:11.663Z,71.20
2023-02-18T05:22:38.849Z,71.30
2023-02-18T05:25:06.566Z,71.50
2023-02-18T05:27:33.237Z,71.40
2023-02-18T05:29:59.931Z,71.40
2023-02-18T05:32:26.682Z,71.50
2023-02-18T05:34:53.373Z,71.50
2023-02-18T05:37:20.090Z,71.50
2023-02-18T05:39:46.930Z,71.50
2023-02-18T05:42:13.618Z,71.50
2023-02-18T05:44:40.330Z,71.90
2023-02-18T05:47:11.412Z,71.60
2023-02-18T05:49:40.110Z,71.70
2023-02-18T05:52:08.382Z,71.60
2023-02-18T05:54:36.016Z,71.70
2023-02-18T05:57:03.263Z,71.60
2023-02-18T05:59:30.562Z,71.60
2023-02-18T06:01:57.662Z,71.70
2023-02-18T06:04:24.607Z,71.60
2023-02-18T06:06:51.556Z,71.60
2023-02-18T06:09:18.334Z,71.60
2023-02-18T06:11:45.179Z,71.60
2023-02-18T06:14:11.986Z,71.70
2023-02-18T06:16:38.837Z,71.60
2023-02-18T06:19:05.545Z,71.60
2023-02-18T06:21:32.313Z,71.60
2023-02-18T06:23:59.010Z,71.50
2023-02-18T06:26:25.786Z,71.70
2023-02-18T06:28:52.545Z,72.30
2023-02-18T06:31:19.347Z,71.60
2023-02-18T06:33:46.077Z,71.60
2023-02-18T06:36:13.808Z,71.70
2023-02-18T06:38:42.014Z,71.80
2023-02-18T06:41:09.070Z,71.70
2023-02-18T06:43:35.970Z,72.10
2023-02-18T06:46:03.323Z,71.70
2023-02-18T06:48:30.006Z,71.80
2023-02-18T06:50:57.160Z,71.70
2023-02-18T06:53:24.264Z,71.70
2023-02-18T06:55:50.968Z,71.70
2023-02-18T06:58:17.844Z,71.90
2023-02-18T07:00:44.992Z,71.70
2023-02-18T07:03:14.498Z,71.80
2023-02-18T07:05:42.341Z,71.80
2023-02-18T07:08:09.724Z,71.80
2023-02-18T07:10:36.550Z,71.80
2023-02-18T07:13:03.635Z,71.80
2023-02-18T07:15:30.348Z,71.70
2023-02-18T07:17:57.058Z,71.80
2023-02-18T07:20:24.146Z,71.80
2023-02-18T07:22:51.726Z,72.00
2023-02-18T07:25:19.086Z,71.80
2023-02-18T07:27:46.033Z,71.90
2023-02-18T07:30:13.967Z,72.50
2023-02-18T07:32:40.800Z,71.80
2023-02-18T07:35:07.702Z,71.90
2023-02-18T07:37:34.405Z,71.80
2023-02-18T07:40:01.119Z,71.80
2023-02-18T07:42:27.817Z,72.00
2023-02-18T07:44:54.489Z,71.90
2023-02-18T07:47:21.282Z,71.90
2023-02-18T07:49:48.100Z,72.10
2023-02-18T07:52:15.999Z,72.20
2023-02-18T07:54:42.975Z,72.30
2023-02-18T07:57:09.839Z,72.10
2023-02-18T07:59:36.543Z,72.00
2023-02-18T08:02:05.499Z,71.90
2023-02-18T08:04:32.466Z,72.00
2023-02-18T08:06:59.225Z,72.00
2023-02-18T08:09:25.926Z,72.20
2023-02-18T08:11:52.668Z,72.00
2023-02-18T08:14:19.395Z,71.90
2023-02-18T08:16:46.182Z,72.00
2023-02-18T08:19:13.201Z,72.10
2023-02-18T08:21:39.911Z,72.00
2023-02-18T08:24:07.996Z,72.10
2023-02-18T08:26:34.866Z,72.10
2023-02-18T08:29:01.795Z,72.20
2023-02-18T08:31:30.297Z,72.00
2023-02-18T08:33:58.950Z,72.00
2023-02-18T08:36:26.071Z,72.20
2023-02-18T08:38:52.931Z,72.00
2023-02-18T08:41:20.133Z,72.20
2023-02-18T08:43:47.977Z,72.70
2023-02-18T08:46:22.241Z,72.00
2023-02-18T08:48:59.957Z,72.10
2023-02-18T08:51:28.264Z,72.10
2023-02-18T08:53:54.940Z,72.00
2023-02-18T08:56:21.617Z,72.00
2023-02-18T08:58:48.353Z,72.10
2023-02-18T09:01:15.049Z,72.10
2023-02-18T09:03:42.159Z,72.10
2023-02-18T09:06:09.399Z,72.00
2023-02-18T09:08:36.516Z,72.10
2023-02-18T09:11:08.074Z,72.10
2023-02-18T09:13:35.386Z,72.10
2023-02-18T09:16:05.281Z,72.10
2023-02-18T09:18:33.059Z,72.10
2023-02-18T09:21:00.578Z,72.00
2023-02-18T09:23:28.942Z,72.00
2023-02-18T09:25:55.961Z,72.10
2023-02-18T09:28:23.406Z,72.10
2023-02-18T09:30:50.749Z,72.00
2023-02-18T09:33:18.261Z,72.00
2023-02-18T09:35:46.446Z,72.00
2023-02-18T09:38:15.997Z,72.00
2023-02-18T09:40:50.584Z,72.00
2023-02-18T09:43:48.499Z,72.00
2023-02-18T09:46:23.271Z,72.00
2023-02-18T09:48:52.494Z,72.00
2023-02-18T09:51:20.043Z,71.90
2023-02-18T09:53:47.893Z,72.00
2023-02-18T09:56:29.190Z,71.90
2023-02-18T09:58:58.652Z,72.00
2023-02-18T10:01:37.433Z,72.00
2023-02-18T10:04:14.520Z,71.80
2023-02-18T10:06:41.661Z,72.10
2023-02-18T10:09:34.529Z,72.00
2023-02-18T10:12:17.023Z,71.90
2023-02-18T10:14:48.141Z,71.80
2023-02-18T10:17:17.159Z,71.80
2023-02-18T10:19:46.646Z,71.90
2023-02-18T10:22:15.849Z,71.80
2023-02-18T10:24:53.788Z,71.90
2023-02-18T10:27:38.968Z,71.80
2023-02-18T10:30:26.618Z,71.80
2023-02-18T10:33:08.101Z,72.10
2023-02-18T10:35:41.774Z,71.80
2023-02-18T10:38:19.401Z,71.90
2023-02-18T10:41:16.598Z,72.00
2023-02-18T10:44:21.960Z,71.80
2023-02-18T10:47:14.831Z,71.90
2023-02-18T10:49:55.608Z,71.80
2023-02-18T10:52:23.476Z,72.00
2023-02-18T10:55:09.468Z,71.90
2023-02-18T10:57:50.153Z,71.90
2023-02-18T11:00:26.518Z,71.80
2023-02-18T11:03:18.850Z,71.80
2023-02-18T11:05:47.933Z,71.90
2023-02-18T11:08:20.166Z,71.90
2023-02-18T11:10:48.756Z,72.00
2023-02-18T11:13:23.254Z,71.90
2023-02-18T11:15:57.090Z,71.90
2023-02-18T11:18:26.508Z,71.90
2023-02-18T11:21:21.863Z,71.80
2023-02-18T11:23:51.551Z,71.90
2023-02-18T11:26:31.361Z,71.90
2023-02-18T11:29:23.309Z,71.80
2023-02-18T11:31:53.561Z,71.80
2023-02-18T11:34:23.803Z,71.80
2023-02-18T11:36:52.350Z,71.90
2023-02-18T11:39:18.986Z,71.80
2023-02-18T11:42:06.983Z,71.80
2023-02-18T11:44:37.791Z,71.90
2023-02-18T11:47:22.421Z,71.90
2023-02-18T11:50:17.449Z,71.90
2023-02-18T11:52:47.302Z,71.90
2023-02-18T11:55:24.932Z,71.90
2023-02-18T11:58:04.059Z,71.80
2023-02-18T12:00:40.372Z,71.80
2023-02-18T12:03:40.865Z,71.80
2023-02-18T12:06:49.035Z,71.80
2023-02-18T12:09:49.725Z,71.80
2023-02-18T12:12:24.427Z,71.90
2023-02-18T12:14:54.347Z,71.90
2023-02-18T12:17:46.149Z,71.90
2023-02-18T12:20:34.670Z,71.80
2023-02-18T12:23:17.805Z,71.90
2023-02-18T12:25:57.918Z,71.90
2023-02-18T12:28:24.589Z,71.90
2023-02-18T12:30:58.287Z,71.90
2023-02-18T12:33:47.620Z,71.90
2023-02-18T12:36:42.787Z,71.90
2023-02-18T12:39:44.295Z,71.90
2023-02-18T12:42:22.094Z,71.90
2023-02-18T12:45:07.597Z,71.90
2023-02-18T12:47:47.314Z,71.90
2023-02-18T12:50:19.975Z,71.90
2023-02-18T12:53:20.629Z,71.90
2023-02-18T12:55:56.155Z,71.90
2023-02-18T12:58:46.080Z,71.90
2023-02-18T13:01:21.608Z,71.90
2023-02-18T13:04:21.847Z,71.90
2023-02-18T13:07:12.808Z,71.90
2023-02-18T13:09:42.578Z,71.90
2023-02-18T13:12:43.841Z,71.90
2023-02-18T13:15:25.113Z,71.90
2023-02-18T13:17:57.990Z,72.00
2023-02-18T13:20:40.635Z,71.80
2023-02-18T13:23:16.316Z,71.90
2023-02-18T13:25:43.503Z,71.80
2023-02-18T13:28:26.375Z,71.80
2023-02-18T13:31:31.298Z,71.90
2023-02-18T13:34:39.510Z,71.90
2023-02-18T13:37:23.565Z,71.80
2023-02-18T13:40:00.697Z,72.20
2023-02-18T13:42:35.668Z,72.00
2023-02-18T13:45:23.561Z,72.00
2023-02-18T13:47:51.218Z,71.90
2023-02-18T13:50:26.994Z,72.00
2023-02-18T13:53:09.219Z,72.10
2023-02-18T13:55:41.265Z,72.00
2023-02-18T13:58:22.174Z,72.20
2023-02-18T14:00:55.894Z,72.00
2023-02-18T14:03:43.425Z,72.00
2023-02-18T14:06:16.487Z,72.10
2023-02-18T14:08:44.329Z,72.10
2023-02-18T14:11:14.448Z,72.10
2023-02-18T14:13:48.972Z,72.00
2023-02-18T14:16:16.181Z,72.10
2023-02-18T14:18:42.868Z,72.20
2023-02-18T14:21:12.637Z,72.10
2023-02-18T14:23:57.730Z,72.00
2023-02-18T14:26:33.687Z,72.10
2023-02-18T14:29:19.160Z,72.10
2023-02-18T14:31:50.753Z,72.10
2023-02-18T14:34:34.459Z,72.10
2023-02-18T14:37:22.212Z,72.10
2023-02-18T14:40:10.807Z,72.00
2023-02-18T14:43:11.769Z,72.10
2023-02-18T14:46:05.311Z,72.30
2023-02-18T14:48:43.624Z,72.10
2023-02-18T14:51:14.915Z,72.20
2023-02-18T14:53:44.631Z,72.20
2023-02-18T14:56:16.559Z,72.20
2023-02-18T14:58:48.907Z,72.20
2023-02-18T15:01:24.562Z,72.20
2023-02-18T15:03:53.944Z,72.20
2023-02-18T15:06:33.975Z,72.20
2023-02-18T15:09:03.090Z,72.20
2023-02-18T15:11:43.078Z,72.10
2023-02-18T15:14:25.260Z,72.10
2023-02-18T15:16:52.966Z,72.20
2023-02-18T15:19:26.018Z,72.20
2023-02-18T15:21:55.565Z,72.10
2023-02-18T15:24:36.815Z,72.30
2023-02-18T15:27:11.848Z,72.20
2023-02-18T15:29:39.358Z,72.20
2023-02-18T15:32:17.113Z,72.70
2023-02-18T15:34:44.509Z,72.30
2023-02-18T15:37:15.056Z,72.20
2023-02-18T15:39:43.318Z,72.10
2023-02-18T15:42:31.879Z,71.90
2023-02-18T15:45:23.044Z,72.10
2023-02-18T15:47:57.832Z,72.30
2023-02-18T15:50:28.265Z,72.00
2023-02-18T15:52:57.890Z,72.10
2023-02-18T15:55:24.615Z,72.20
2023-02-18T15:57:53.934Z,72.10
2023-02-18T16:00:31.729Z,72.10
2023-02-18T16:03:19.775Z,72.20
2023-02-18T16:05:46.565Z,72.10
2023-02-18T16:08:17.880Z,72.10
2023-02-18T16:10:47.393Z,72.20
2023-02-18T16:13:16.948Z,72.10
2023-02-18T16:15:46.373Z,72.10
2023-02-18T16:18:39.107Z,72.00
2023-02-18T16:21:19.832Z,72.00
2023-02-18T16:23:58.548Z,71.90
2023-02-18T16:26:28.296Z,72.00
2023-02-18T16:29:00.434Z,72.00
2023-02-18T16:31:27.209Z,71.90
2023-02-18T16:33:53.935Z,71.90
2023-02-18T16:36:23.314Z,72.10
2023-02-18T16:38:50.055Z,72.50
2023-02-18T16:41:17.725Z,72.00
2023-02-18T16:43:44.454Z,71.90
2023-02-18T16:46:23.063Z,72.00
2023-02-18T16:48:52.673Z,71.90
2023-02-18T16:51:23.779Z,71.90
2023-02-18T16:53:50.722Z,71.80
2023-02-18T16:56:21.362Z,71.90
2023-02-18T16:58:48.147Z,71.80
2023-02-18T17:01:31.535Z,71.90
2023-02-18T17:04:00.344Z,71.80
2023-02-18T17:06:28.325Z,72.00
2023-02-18T17:08:55.377Z,71.80
2023-02-18T17:11:40.129Z,71.80
2023-02-18T17:14:06.790Z,71.80
2023-02-18T17:16:33.540Z,71.80
2023-02-18T17:19:00.341Z,72.50
2023-02-18T17:21:27.064Z,71.70
2023-02-18T17:23:54.022Z,71.90
2023-02-18T17:26:26.869Z,71.80
2023-02-18T17:28:55.982Z,71.70
2023-02-18T17:31:31.982Z,71.80
2023-02-18T17:34:01.765Z,71.80
2023-02-18T17:36:28.460Z,71.80
2023-02-18T17:38:55.215Z,71.70
2023-02-18T17:41:22.031Z,71.70
2023-02-18T17:43:48.726Z,71.70
2023-02-18T17:46:20.095Z,71.70
2023-02-18T17:48:47.311Z,71.80
2023-02-18T17:51:25.564Z,71.70
2023-02-18T17:53:52.651Z,71.70
2023-02-18T17:56:19.395Z,71.70
2023-02-18T17:58:47.031Z,71.70
2023-02-18T18:01:13.901Z,71.70
2023-02-18T18:03:40.778Z,71.70
2023-02-18T18:06:18.845Z,71.70
2023-02-18T18:08:46.387Z,71.70
2023-02-18T18:11:16.726Z,71.70
2023-02-18T18:13:43.851Z,71.60
2023-02-18T18:16:13.205Z,71.70
2023-02-18T18:18:40.256Z,71.70
2023-02-18T18:21:21.070Z,71.70
2023-02-18T18:23:48.329Z,71.60
2023-02-18T18:26:16.573Z,71.60
2023-02-18T18:28:43.306Z,71.60
2023-02-18T18:31:15.686Z,71.70
2023-02-18T18:33:43.159Z,71.60
2023-02-18T18:36:10.153Z,71.60
2023-02-18T18:38:37.066Z,71.70
2023-02-18T18:41:03.867Z,71.60
2023-02-18T18:43:33.091Z,71.60
2023-02-18T18:46:00.465Z,71.60
2023-02-18T18:48:27.530Z,71.70
2023-02-18T18:50:54.897Z,71.60
2023-02-18T18:53:24.567Z,71.60
2023-02-18T18:55:54.016Z,71.50
2023-02-18T18:58:21.048Z,71.60
2023-02-18T19:00:55.865Z,71.60
2023-02-18T19:03:24.741Z,71.60
2023-02-18T19:05:52.377Z,71.60
2023-02-18T19:08:20.307Z,71.60
2023-02-18T19:10:52.915Z,71.50
2023-02-18T19:13:22.001Z,71.60
2023-02-18T19:15:50.473Z,71.60
2023-02-18T19:18:20.439Z,71.60
2023-02-18T19:20:47.793Z,72.10
2023-02-18T19:23:14.998Z,71.60
2023-02-18T19:25:41.982Z,71.60
2023-02-18T19:28:11.124Z,71.60
2023-02-18T19:30:38.770Z,71.60
2023-02-18T19:33:06.368Z,71.60
2023-02-18T19:35:33.445Z,71.60
2023-02-18T19:38:00.847Z,71.50
2023-02-18T19:40:30.532Z,71.60
2023-02-18T19:42:57.585Z,71.50
2023-02-18T19:45:24.733Z,71.60
2023-02-18T19:47:59.016Z,71.60
2023-02-18T19:50:27.510Z,71.50
2023-02-18T19:52:58.898Z,71.60
2023-02-18T19:55:26.162Z,71.60
2023-02-18T19:57:52.858Z,71.70
2023-02-18T20:00:22.153Z,71.60
2023-02-18T20:02:49.699Z,71.60
2023-02-18T20:05:16.924Z,71.50
2023-02-18T20:07:46.097Z,71.60
2023-02-18T20:10:16.179Z,71.60
2023-02-18T20:12:43.691Z,71.70
2023-02-18T20:15:10.649Z,71.60
2023-02-18T20:17:39.271Z,71.50
2023-02-18T20:20:06.415Z,71.50
2023-02-18T20:22:33.263Z,71.60
2023-02-18T20:25:00.110Z,71.60
2023-02-18T20:27:26.835Z,71.60
2023-02-18T20:29:53.540Z,71.60
2023-02-18T20:32:20.363Z,71.50
2023-02-18T20:34:47.139Z,71.50
2023-02-18T20:37:13.909Z,71.50
2023-02-18T20:39:40.726Z,71.60
2023-02-18T20:42:15.968Z,71.50
2023-02-18T20:44:44.503Z,71.50
2023-02-18T20:47:13.424Z,71.50
2023-02-18T20:49:40.558Z,71.60
2023-02-18T20:52:08.118Z,71.50
2023-02-18T20:54:34.809Z,71.50
2023-02-18T20:57:01.936Z,71.60
2023-02-18T20:59:33.309Z,71.60
2023-02-18T21:02:00.356Z,71.50
2023-02-18T21:04:27.357Z,71.50
2023-02-18T21:06:54.207Z,72.10
2023-02-18T21:09:21.509Z,71.50
2023-02-18T21:11:48.865Z,71.50
2023-02-18T21:14:15.962Z,71.60
2023-02-18T21:16:43.072Z,71.60
2023-02-18T21:19:13.855Z,71.50
2023-02-18T21:21:41.269Z,71.50
2023-02-18T21:24:08.278Z,71.50
2023-02-18T21:26:35.619Z,71.50
2023-02-18T21:29:05.587Z,71.50
2023-02-18T21:31:35.371Z,71.60
2023-02-18T21:34:03.452Z,71.60
2023-02-18T21:36:31.096Z,71.50
2023-02-18T21:39:01.896Z,71.50
2023-02-18T21:41:29.520Z,71.50
2023-02-18T21:43:56.706Z,71.50
2023-02-18T21:46:26.936Z,71.50
2023-02-18T21:49:05.563Z,71.50
2023-02-18T21:51:50.721Z,71.50
2023-02-18T21:54:28.801Z,71.60
2023-02-18T21:56:56.249Z,71.50
2023-02-18T21:59:26.298Z,71.50
2023-02-18T22:01:53.254Z,71.50
2023-02-18T22:04:20.014Z,71.60
2023-02-18T22:06:46.728Z,71.50
2023-02-18T22:09:13.836Z,71.50
2023-02-18T22:11:43.570Z,71.50
2023-02-18T22:14:14.652Z,71.50
2023-02-18T22:16:41.938Z,71.50
2023-02-18T22:19:10.485Z,71.40
2023-02-18T22:21:37.249Z,71.50
2023-02-18T22:24:05.549Z,71.50
2023-02-18T22:26:32.440Z,71.50
2023-02-18T22:28:59.928Z,71.50
2023-02-18T22:31:28.894Z,71.50
2023-02-18T22:33:56.955Z,71.50
2023-02-18T22:36:24.755Z,71.40
2023-02-18T22:38:53.526Z,71.50
2023-02-18T22:41:22.633Z,71.40
2023-02-18T22:43:57.010Z,72.10
2023-02-18T22:46:23.915Z,71.50
2023-02-18T22:48:51.307Z,71.50
2023-02-18T22:51:22.449Z,71.60
2023-02-18T22:53:49.420Z,71.40
2023-02-18T22:56:20.754Z,71.60
2023-02-18T22:58:49.279Z,71.60
2023-02-18T23:01:37.691Z,71.40
2023-02-18T23:04:06.011Z,71.50
2023-02-18T23:06:33.460Z,71.40
2023-02-18T23:09:00.488Z,71.50
2023-02-18T23:11:27.328Z,71.40
2023-02-18T23:14:14.247Z,71.50
2023-02-18T23:17:01.251Z,71.40
2023-02-18T23:19:30.387Z,71.40
2023-02-18T23:21:57.410Z,71.40
2023-02-18T23:24:24.823Z,71.40
2023-02-18T23:26:51.909Z,71.50
2023-02-18T23:29:19.412Z,71.50
2023-02-18T23:31:46.191Z,71.40
2023-02-18T23:34:15.128Z,71.40
2023-02-18T23:36:42.877Z,71.40
2023-02-18T23:39:11.278Z,71.40
2023-02-18T23:41:38.183Z,71.40
2023-02-18T23:44:11.111Z,71.40
2023-02-18T23:46:39.166Z,71.40
2023-02-18T23:49:06.110Z,71.40
2023-02-18T23:51:32.895Z,71.40
2023-02-18T23:54:02.736Z,71.40
2023-02-18T23:56:29.699Z,71.40
2023-02-18T23:59:01.211Z,71.40
